Time;durP1;ratioP1;P1;durP2;ratioP2;P2;SDS_P1;SDS_P2;PMS_P1;PMS_P2;Temp;Humidity;BMP_temperature;BMP_pressure;BME280_temperature;BME280_humidity;BME280_pressure;Samples;Min_cycle;Max_cycle;Signal;HPM_P1;HPM_P2
2022/06/28 00:01:50;;;;;;;2.20;1.60;;;;;;;;;;5030668;28;20206;-32
2022/06/28 00:04:17;;;;;;;3.53;1.83;;;;;;;;;;5023414;28;20210;-31
2022/06/28 00:06:44;;;;;;;2.27;1.80;;;;;;;;;;5028937;28;20224;-29
2022/06/28 00:09:12;;;;;;;2.10;1.63;;;;;;;;;;5030692;28;20209;-31
2022/06/28 00:11:40;;;;;;;2.67;1.87;;;;;;;;;;5021556;28;20225;-28
2022/06/28 00:16:04;;;;;;;2.60;1.73;;;;;;;;;;5028646;28;20210;-27
2022/06/28 00:16:54;;;;;;;2.07;1.60;;;;;;;;;;5030363;28;20264;-31
2022/06/28 00:19:21;;;;;;;2.60;1.90;;;;;;;;;;5020960;28;20203;-28
2022/06/28 00:21:48;;;;;;;2.93;1.80;;;;;;;;;;5029849;28;20200;-31
2022/06/28 00:24:18;;;;;;;2.53;1.60;;;;;;;;;;5030617;28;20291;-32
2022/06/28 00:26:48;;;;;;;5.90;2.27;;;;;;;;;;5026353;28;20229;-33
2022/06/28 00:29:15;;;;;;;5.70;1.80;;;;;;;;;;5025805;28;20212;-30
2022/06/28 00:31:42;;;;;;;2.73;1.90;;;;;;;;;;5029981;28;20247;-29
2022/06/28 00:34:09;;;;;;;1.70;1.60;;;;;;;;;;5019585;28;20215;-31
2022/06/28 00:36:37;;;;;;;2.00;1.80;;;;;;;;;;5028367;28;20239;-31
2022/06/28 00:39:05;;;;;;;2.90;1.90;;;;;;;;;;5030605;28;20204;-32
2022/06/28 00:41:32;;;;;;;3.00;1.70;;;;;;;;;;5027792;28;20214;-30
2022/06/28 00:44:00;;;;;;;3.40;1.77;;;;;;;;;;5023887;28;20200;-32
2022/06/28 00:46:28;;;;;;;1.60;1.33;;;;;;;;;;5029961;28;20215;-26
2022/06/28 00:48:55;;;;;;;3.07;2.03;;;;;;;;;;5019306;28;20198;-33
2022/06/28 00:51:24;;;;;;;3.70;1.60;;;;;;;;;;5028922;28;20558;-29
2022/06/28 00:53:52;;;;;;;2.33;2.00;;;;;;;;;;5030474;28;20224;-28
2022/06/28 00:56:19;;;;;;;1.87;1.77;;;;;;;;;;5030210;28;20232;-31
2022/06/28 00:58:46;;;;;;;2.70;1.57;;;;;;;;;;5017326;28;20217;-29
2022/06/28 01:01:14;;;;;;;1.97;1.67;;;;;;;;;;5020841;28;20685;-29
2022/06/28 01:03:42;;;;;;;1.87;1.77;;;;;;;;;;5024288;28;20209;-30
2022/06/28 01:06:09;;;;;;;5.73;1.90;;;;;;;;;;5029208;28;20241;-29
2022/06/28 01:08:37;;;;;;;3.97;2.13;;;;;;;;;;5030327;28;20680;-32
2022/06/28 01:11:18;;;;;;;3.00;1.77;;;;;;;;;;5030733;28;20215;-28
2022/06/28 01:13:46;;;;;;;6.80;2.53;;;;;;;;;;5024277;28;20863;-29
2022/06/28 01:16:14;;;;;;;3.23;1.83;;;;;;;;;;5031886;28;20221;-31
2022/06/28 01:18:41;;;;;;;2.23;2.03;;;;;;;;;;5022097;28;20251;-28
2022/06/28 01:21:10;;;;;;;3.30;1.80;;;;;;;;;;5031194;28;20203;-30
2022/06/28 01:23:39;;;;;;;3.10;1.80;;;;;;;;;;5030651;28;20284;-28
2022/06/28 01:26:06;;;;;;;3.03;1.70;;;;;;;;;;5023745;28;20224;-33
2022/06/28 01:28:33;;;;;;;3.37;2.10;;;;;;;;;;5029096;28;20235;-32
2022/06/28 01:31:01;;;;;;;4.67;2.07;;;;;;;;;;5030409;28;20388;-29
2022/06/28 01:35:56;;;;;;;3.90;2.30;;;;;;;;;;5030933;28;20222;-39
2022/06/28 01:38:24;;;;;;;4.70;2.37;;;;;;;;;;5032734;28;20212;-39
2022/06/28 01:40:52;;;;;;;4.33;2.17;;;;;;;;;;5029648;28;20351;-37
2022/06/28 01:43:20;;;;;;;3.60;2.10;;;;;;;;;;5027375;28;20205;-34
2022/06/28 01:45:49;;;;;;;2.67;2.47;;;;;;;;;;5032434;28;20201;-37
2022/06/28 01:48:18;;;;;;;2.83;2.20;;;;;;;;;;5029504;28;20237;-36
2022/06/28 01:50:45;;;;;;;3.23;2.10;;;;;;;;;;5031668;28;20211;-35
2022/06/28 01:53:12;;;;;;;2.20;2.00;;;;;;;;;;5034430;28;20220;-37
2022/06/28 01:55:39;;;;;;;4.90;2.40;;;;;;;;;;5032348;28;20208;-38
2022/06/28 01:58:08;;;;;;;2.17;2.00;;;;;;;;;;5024493;28;20208;-37
2022/06/28 02:00:35;;;;;;;4.83;2.33;;;;;;;;;;5029375;28;20196;-37
2022/06/28 02:03:03;;;;;;;3.47;2.17;;;;;;;;;;5027052;28;20200;-37
2022/06/28 02:05:30;;;;;;;3.20;1.90;;;;;;;;;;5028607;28;20204;-34
2022/06/28 02:07:57;;;;;;;3.07;1.80;;;;;;;;;;5024454;28;20249;-34
2022/06/28 02:10:24;;;;;;;1.77;1.67;;;;;;;;;;5032550;28;20212;-35
2022/06/28 02:12:52;;;;;;;7.90;1.77;;;;;;;;;;5026395;28;20235;-36
2022/06/28 02:15:20;;;;;;;5.43;1.77;;;;;;;;;;5031517;28;20211;-35
2022/06/28 02:17:47;;;;;;;2.00;1.83;;;;;;;;;;5026355;28;20239;-34
2022/06/28 02:20:15;;;;;;;2.87;1.80;;;;;;;;;;5025078;28;20330;-35
2022/06/28 02:22:42;;;;;;;27.20;3.53;;;;;;;;;;5031925;28;20203;-38
2022/06/28 02:25:09;;;;;;;6.27;1.60;;;;;;;;;;5032139;28;20226;-40
2022/06/28 02:27:37;;;;;;;3.77;1.97;;;;;;;;;;5028514;28;20242;-35
2022/06/28 02:30:04;;;;;;;2.90;1.80;;;;;;;;;;5025916;28;20208;-35
2022/06/28 02:32:32;;;;;;;1.87;1.77;;;;;;;;;;5033887;28;20233;-36
2022/06/28 02:40:29;;;;;;;3.77;1.97;;;;;;;;;;5035785;28;20199;-39
2022/06/28 02:42:57;;;;;;;6.33;2.43;;;;;;;;;;5030209;28;20228;-36
2022/06/28 02:45:25;;;;;;;2.13;1.93;;;;;;;;;;5033980;28;20289;-36
2022/06/28 02:47:54;;;;;;;3.63;1.80;;;;;;;;;;5030795;28;20238;-33
2022/06/28 02:50:21;;;;;;;1.97;1.87;;;;;;;;;;5029370;28;20380;-40
2022/06/28 02:52:49;;;;;;;3.27;2.00;;;;;;;;;;5034709;28;20232;-41
2022/06/28 02:55:16;;;;;;;3.93;2.20;;;;;;;;;;5033136;28;20255;-39
2022/06/28 02:57:44;;;;;;;3.03;2.20;;;;;;;;;;5034681;28;20231;-32
2022/06/28 03:00:13;;;;;;;3.00;1.93;;;;;;;;;;5034830;28;20197;-36
2022/06/28 03:02:40;;;;;;;1.70;1.60;;;;;;;;;;5031499;28;20266;-37
2022/06/28 03:05:10;;;;;;;2.67;2.10;;;;;;;;;;5027865;28;20202;-32
2022/06/28 03:07:38;;;;;;;1.80;1.70;;;;;;;;;;5034479;28;20219;-34
2022/06/28 03:10:05;;;;;;;2.40;2.20;;;;;;;;;;5035167;28;20291;-31
2022/06/28 03:12:32;;;;;;;1.83;1.73;;;;;;;;;;5027576;28;20595;-36
2022/06/28 03:14:59;;;;;;;1.70;1.60;;;;;;;;;;5034291;28;20223;-36
2022/06/28 03:17:26;;;;;;;1.67;1.57;;;;;;;;;;5032360;28;20218;-39
2022/06/28 03:19:53;;;;;;;4.10;1.90;;;;;;;;;;5029104;28;20216;-37
2022/06/28 03:22:22;;;;;;;1.80;1.50;;;;;;;;;;5034326;28;20198;-36
2022/06/28 03:24:49;;;;;;;2.07;1.80;;;;;;;;;;5035172;28;20213;-34
2022/06/28 03:27:16;;;;;;;1.70;1.60;;;;;;;;;;5029818;28;20234;-39
2022/06/28 03:29:43;;;;;;;2.70;1.47;;;;;;;;;;5032616;28;20207;-36
2022/06/28 03:32:10;;;;;;;1.43;1.33;;;;;;;;;;5034219;28;20210;-39
2022/06/28 03:34:38;;;;;;;2.00;1.90;;;;;;;;;;5025598;28;20218;-32
2022/06/28 03:37:05;;;;;;;1.73;1.30;;;;;;;;;;5033758;28;20225;-36
2022/06/28 03:39:33;;;;;;;1.30;1.17;;;;;;;;;;5033707;28;20207;-40
2022/06/28 03:42:01;;;;;;;2.00;1.20;;;;;;;;;;5029128;28;20203;-37
2022/06/28 03:44:28;;;;;;;1.87;1.77;;;;;;;;;;5034442;28;20197;-33
2022/06/28 03:46:55;;;;;;;2.07;1.70;;;;;;;;;;5034423;28;20220;-35
2022/06/28 03:49:22;;;;;;;2.10;1.90;;;;;;;;;;5025015;28;20210;-32
2022/06/28 03:51:49;;;;;;;2.90;2.17;;;;;;;;;;5033202;28;20199;-34
2022/06/28 03:54:16;;;;;;;3.60;1.97;;;;;;;;;;5033584;28;20584;-37
2022/06/28 03:56:45;;;;;;;5.63;2.20;;;;;;;;;;5032596;28;20226;-31
2022/06/28 03:59:12;;;;;;;5.60;1.80;;;;;;;;;;5027864;28;20277;-34
2022/06/28 04:01:39;;;;;;;2.10;1.90;;;;;;;;;;5033659;28;20211;-35
2022/06/28 04:04:06;;;;;;;2.63;2.17;;;;;;;;;;5026021;28;20212;-32
2022/06/28 04:06:33;;;;;;;3.90;2.10;;;;;;;;;;5033820;28;20317;-36
2022/06/28 04:09:00;;;;;;;3.00;2.23;;;;;;;;;;5034446;28;20214;-37
2022/06/28 04:11:28;;;;;;;2.00;1.90;;;;;;;;;;5034200;28;20257;-35
2022/06/28 04:13:56;;;;;;;2.37;1.83;;;;;;;;;;5025045;28;20224;-30
2022/06/28 04:16:24;;;;;;;6.77;2.70;;;;;;;;;;5030578;28;20226;-36
2022/06/28 04:18:51;;;;;;;2.10;1.90;;;;;;;;;;5025457;28;20213;-40
2022/06/28 04:21:19;;;;;;;4.33;2.20;;;;;;;;;;5033789;28;20253;-34
2022/06/28 04:23:46;;;;;;;2.10;1.90;;;;;;;;;;5033532;28;20214;-37
2022/06/28 04:26:13;;;;;;;6.53;1.87;;;;;;;;;;5028576;28;20238;-38
2022/06/28 04:28:41;;;;;;;3.27;1.97;;;;;;;;;;5033159;28;20203;-38
2022/06/28 04:31:10;;;;;;;3.87;2.13;;;;;;;;;;5033749;28;20204;-37
2022/06/28 04:33:37;;;;;;;1.53;1.43;;;;;;;;;;5026882;28;20246;-40
2022/06/28 04:36:05;;;;;;;3.13;1.63;;;;;;;;;;5026937;28;20238;-40
2022/06/28 04:38:32;;;;;;;3.13;1.40;;;;;;;;;;5033218;28;20208;-36
2022/06/28 04:40:59;;;;;;;1.33;1.03;;;;;;;;;;5033325;28;20209;-40
2022/06/28 04:43:26;;;;;;;1.03;1.00;;;;;;;;;;5027924;28;20206;-37
2022/06/28 04:45:53;;;;;;;0.90;0.90;;;;;;;;;;5032823;28;20208;-32
2022/06/28 04:48:22;;;;;;;1.97;1.07;;;;;;;;;;5033495;28;20196;-36
2022/06/28 04:50:49;;;;;;;1.60;1.20;;;;;;;;;;5033108;28;20215;-35
2022/06/28 04:53:16;;;;;;;1.80;1.00;;;;;;;;;;5032817;28;20230;-35
2022/06/28 04:55:44;;;;;;;0.97;0.97;;;;;;;;;;5028844;28;20239;-35
2022/06/28 04:58:11;;;;;;;1.30;1.20;;;;;;;;;;5028370;28;20204;-30
2022/06/28 05:03:07;;;;;;;1.00;1.00;;;;;;;;;;5044206;28;20222;-36
2022/06/28 05:05:35;;;;;;;1.37;1.20;;;;;;;;;;5047304;28;20203;-34
2022/06/28 05:08:02;;;;;;;3.07;1.40;;;;;;;;;;5054148;28;20226;-35
2022/06/28 05:10:29;;;;;;;1.20;1.10;;;;;;;;;;5051824;28;20206;-31
2022/06/28 05:12:56;;;;;;;2.07;1.20;;;;;;;;;;5049027;28;20198;-33
2022/06/28 05:15:24;;;;;;;1.13;1.13;;;;;;;;;;5053775;28;20197;-36
2022/06/28 05:17:51;;;;;;;2.60;1.30;;;;;;;;;;5048740;28;20296;-35
2022/06/28 05:20:18;;;;;;;2.67;1.40;;;;;;;;;;5051845;28;20203;-41
2022/06/28 05:22:47;;;;;;;3.00;1.83;;;;;;;;;;5054833;28;20203;-40
2022/06/28 05:25:14;;;;;;;2.10;1.50;;;;;;;;;;5053333;28;20205;-38
2022/06/28 05:27:41;;;;;;;1.50;1.40;;;;;;;;;;5045181;28;20228;-40
2022/06/28 05:30:09;;;;;;;2.03;1.33;;;;;;;;;;5052771;28;20204;-36
2022/06/28 05:32:36;;;;;;;1.90;1.50;;;;;;;;;;5050234;28;20204;-38
2022/06/28 05:35:03;;;;;;;1.50;1.40;;;;;;;;;;5047716;28;20220;-35
2022/06/28 05:37:30;;;;;;;2.20;2.10;;;;;;;;;;5052757;28;20258;-33
2022/06/28 05:39:58;;;;;;;1.30;1.20;;;;;;;;;;5053101;28;20221;-37
2022/06/28 05:42:26;;;;;;;3.33;1.93;;;;;;;;;;5042836;28;20209;-35
2022/06/28 05:44:53;;;;;;;1.73;1.63;;;;;;;;;;5049415;28;20205;-37
2022/06/28 05:47:20;;;;;;;1.67;1.50;;;;;;;;;;5051028;28;20226;-44
2022/06/28 05:49:47;;;;;;;2.50;2.33;;;;;;;;;;5044200;28;20206;-36
2022/06/28 05:52:14;;;;;;;2.57;1.90;;;;;;;;;;5052875;28;20197;-40
2022/06/28 05:54:41;;;;;;;4.13;2.17;;;;;;;;;;5052914;28;20229;-35
2022/06/28 05:57:09;;;;;;;3.57;2.87;;;;;;;;;;5044385;28;20231;-36
2022/06/28 05:59:37;;;;;;;2.93;2.73;;;;;;;;;;5051920;28;20209;-37
2022/06/28 06:02:04;;;;;;;3.03;2.70;;;;;;;;;;5064096;28;20208;-36
2022/06/28 06:04:31;;;;;;;3.20;2.90;;;;;;;;;;5058516;28;20198;-37
2022/06/28 06:06:58;;;;;;;6.90;2.87;;;;;;;;;;5064211;28;20226;-37
2022/06/28 06:09:25;;;;;;;3.10;2.80;;;;;;;;;;5072642;28;20215;-37
2022/06/28 06:11:52;;;;;;;2.63;2.43;;;;;;;;;;5065819;28;20221;-36
2022/06/28 06:14:21;;;;;;;3.57;3.27;;;;;;;;;;5071821;28;20226;-37
2022/06/28 06:16:50;;;;;;;3.33;3.03;;;;;;;;;;5071945;28;20249;-33
2022/06/28 06:19:17;;;;;;;3.23;2.93;;;;;;;;;;5059191;28;20290;-37
2022/06/28 06:21:45;;;;;;;3.30;3.00;;;;;;;;;;5072108;28;20214;-34
2022/06/28 06:24:13;;;;;;;13.07;6.00;;;;;;;;;;5072372;28;20297;-37
2022/06/28 06:26:41;;;;;;;3.47;3.17;;;;;;;;;;5072434;28;20702;-33
2022/06/28 06:29:08;;;;;;;3.20;3.00;;;;;;;;;;5058488;28;20214;-35
2022/06/28 06:31:37;;;;;;;6.67;3.77;;;;;;;;;;5068510;28;20199;-34
2022/06/28 06:34:04;;;;;;;3.47;3.17;;;;;;;;;;5062119;28;20231;-37
2022/06/28 06:36:31;;;;;;;3.77;3.43;;;;;;;;;;5070911;28;20711;-36
2022/06/28 06:38:58;;;;;;;3.80;3.33;;;;;;;;;;5072168;28;20209;-37
2022/06/28 06:41:25;;;;;;;3.10;2.90;;;;;;;;;;5072060;28;20237;-35
2022/06/28 06:43:53;;;;;;;3.20;3.00;;;;;;;;;;5062771;28;20202;-36
2022/06/28 06:46:21;;;;;;;4.13;3.40;;;;;;;;;;5066878;28;20311;-33
2022/06/28 06:48:50;;;;;;;4.70;3.25;;;;;;;;;;5064000;28;20209;-36
2022/06/28 06:51:17;;;;;;;3.37;3.07;;;;;;;;;;5071520;28;20219;-35
2022/06/28 06:53:44;;;;;;;4.57;3.23;;;;;;;;;;5071902;28;20221;-39
2022/06/28 06:56:11;;;;;;;4.17;3.10;;;;;;;;;;5069068;28;20225;-39
2022/06/28 06:58:38;;;;;;;2.73;2.53;;;;;;;;;;5069207;28;20201;-38
2022/06/28 07:01:05;;;;;;;2.90;2.70;;;;;;;;;;5074792;28;20213;-36
2022/06/28 07:03:34;;;;;;;2.80;2.60;;;;;;;;;;5067478;28;20207;-38
2022/06/28 07:06:02;;;;;;;3.57;2.90;;;;;;;;;;5072831;28;20243;-35
2022/06/28 07:08:29;;;;;;;3.20;3.00;;;;;;;;;;5072317;28;20204;-37
2022/06/28 07:10:56;;;;;;;3.50;3.20;;;;;;;;;;5069986;28;20247;-33
2022/06/28 07:13:24;;;;;;;3.07;2.87;;;;;;;;;;5067590;28;20216;-35
2022/06/28 07:15:52;;;;;;;3.70;3.33;;;;;;;;;;5070486;28;20204;-36
2022/06/28 07:18:20;;;;;;;3.37;3.17;;;;;;;;;;5064471;28;20201;-31
2022/06/28 07:20:47;;;;;;;5.23;2.90;;;;;;;;;;5070427;28;20216;-38
2022/06/28 07:23:15;;;;;;;3.40;3.17;;;;;;;;;;5070478;28;20204;-37
2022/06/28 07:25:42;;;;;;;4.40;3.43;;;;;;;;;;5066792;28;20212;-36
2022/06/28 07:28:10;;;;;;;3.50;3.20;;;;;;;;;;5063609;28;20208;-38
2022/06/28 07:30:37;;;;;;;3.50;3.10;;;;;;;;;;5070069;28;20204;-37
2022/06/28 07:33:05;;;;;;;4.20;3.10;;;;;;;;;;5258478;22;20238;-29
2022/06/28 07:35:32;;;;;;;3.20;2.90;;;;;;;;;;4990863;28;20225;-27
2022/06/28 07:37:59;;;;;;;3.30;3.00;;;;;;;;;;4991442;28;20231;-28
2022/06/28 07:40:28;;;;;;;4.23;2.77;;;;;;;;;;4991909;28;20207;-29
2022/06/28 07:42:55;;;;;;;3.60;3.30;;;;;;;;;;4983343;28;20207;-29
2022/06/28 07:45:22;;;;;;;3.13;2.93;;;;;;;;;;4989665;28;20206;-34
2022/06/28 07:47:49;;;;;;;2.80;2.60;;;;;;;;;;4987752;28;20235;-30
2022/06/28 07:53:02;;;;;;;2.53;2.43;;;;;;;;;;4984335;28;20283;-31
2022/06/28 07:55:31;;;;;;;3.13;2.93;;;;;;;;;;4989407;28;20226;-30
2022/06/28 07:57:58;;;;;;;2.77;2.57;;;;;;;;;;4984205;28;20219;-33
2022/06/28 08:00:26;;;;;;;4.47;3.17;;;;;;;;;;4991561;28;20641;-29
2022/06/28 08:02:53;;;;;;;6.40;3.37;;;;;;;;;;4988839;28;20218;-31
2022/06/28 08:05:20;;;;;;;3.07;2.80;;;;;;;;;;4985865;28;20212;-29
2022/06/28 08:07:48;;;;;;;3.53;2.80;;;;;;;;;;4991507;28;20223;-29
2022/06/28 08:10:16;;;;;;;2.60;2.40;;;;;;;;;;4988526;28;20215;-28
2022/06/28 08:12:44;;;;;;;2.60;2.50;;;;;;;;;;4984919;28;20211;-31
2022/06/28 08:15:12;;;;;;;3.20;2.33;;;;;;;;;;4990423;28;20581;-29
2022/06/28 08:17:40;;;;;;;4.05;2.30;;;;;;;;;;4989072;28;20239;-30
2022/06/28 08:20:07;;;;;;;3.37;2.43;;;;;;;;;;4984724;28;20211;-31
2022/06/28 08:22:35;;;;;;;3.08;2.25;;;;;;;;;;4990882;28;20192;-31
2022/06/28 08:25:02;;;;;;;2.40;2.10;;;;;;;;;;4990917;28;20218;-28
2022/06/28 08:27:29;;;;;;;2.63;2.42;;;;;;;;;;4982657;28;20226;-28
2022/06/28 08:29:58;;;;;;;3.13;2.20;;;;;;;;;;4990199;28;20211;-29
2022/06/28 08:32:25;;;;;;;2.17;2.08;;;;;;;;;;4987993;28;20290;-29
2022/06/28 08:34:52;;;;;;;3.03;2.00;;;;;;;;;;4980767;28;20236;-30
2022/06/28 08:37:20;;;;;;;2.42;2.22;;;;;;;;;;4990767;28;20325;-29
2022/06/28 08:39:47;;;;;;;3.17;1.85;;;;;;;;;;4990827;28;20219;-29
2022/06/28 08:42:17;;;;;;;4.15;1.92;;;;;;;;;;4975557;28;20349;-31
2022/06/28 08:44:45;;;;;;;2.75;1.85;;;;;;;;;;4988246;28;20203;-31
2022/06/28 08:47:15;;;;;;;2.13;1.98;;;;;;;;;;4991208;28;20230;-29
2022/06/28 08:49:44;;;;;;;2.35;2.15;;;;;;;;;;4979593;28;20200;-29
2022/06/28 08:52:11;;;;;;;3.08;1.88;;;;;;;;;;4990322;28;20295;-33
2022/06/28 08:54:39;;;;;;;1.80;1.70;;;;;;;;;;4990643;28;20253;-31
2022/06/28 08:57:07;;;;;;;2.80;1.90;;;;;;;;;;4982756;28;20538;-29
2022/06/28 08:59:34;;;;;;;2.10;1.90;;;;;;;;;;4986993;28;20657;-29
2022/06/28 09:02:02;;;;;;;2.17;2.08;;;;;;;;;;4990465;28;20290;-33
2022/06/28 09:04:32;;;;;;;2.00;1.83;;;;;;;;;;4987239;28;20235;-29
2022/06/28 09:07:00;;;;;;;1.80;1.70;;;;;;;;;;4982803;28;20242;-32
2022/06/28 09:09:27;;;;;;;1.30;1.30;;;;;;;;;;4990667;28;20224;-31
2022/06/28 09:11:54;;;;;;;1.65;1.55;;;;;;;;;;4977805;28;20210;-32
2022/06/28 09:14:23;;;;;;;1.60;1.50;;;;;;;;;;4987868;28;20220;-29
2022/06/28 09:16:50;;;;;;;1.70;1.60;;;;;;;;;;4990422;28;20227;-30
2022/06/28 09:19:17;;;;;;;1.70;1.60;;;;;;;;;;4983356;28;20304;-30
2022/06/28 09:21:46;;;;;;;3.50;1.55;;;;;;;;;;4989269;28;20207;-28
2022/06/28 09:24:24;;;;;;;1.30;1.30;;;;;;;;;;4990451;28;20213;-30
2022/06/28 09:26:54;;;;;;;2.00;1.40;;;;;;;;;;4986900;28;20736;-28
2022/06/28 09:29:21;;;;;;;1.92;1.63;;;;;;;;;;4976309;28;20265;-30
2022/06/28 09:31:48;;;;;;;1.60;1.50;;;;;;;;;;4989164;28;20210;-32
2022/06/28 09:34:15;;;;;;;2.47;1.30;;;;;;;;;;4980583;28;20214;-29
2022/06/28 09:36:55;;;;;;;1.42;1.33;;;;;;;;;;4988983;28;20278;-30
2022/06/28 09:39:24;;;;;;;2.65;1.38;;;;;;;;;;4990318;28;20212;-32
2022/06/28 09:41:52;;;;;;;1.90;1.80;;;;;;;;;;4980703;28;20485;-28
2022/06/28 09:44:24;;;;;;;1.90;1.70;;;;;;;;;;4989183;28;20249;-31
2022/06/28 09:46:52;;;;;;;2.40;1.67;;;;;;;;;;4990683;28;20347;-30
2022/06/28 09:49:25;;;;;;;2.58;1.50;;;;;;;;;;4986354;28;20223;-30
2022/06/28 09:51:52;;;;;;;1.60;1.50;;;;;;;;;;4992631;28;20208;-28
2022/06/28 09:54:20;;;;;;;1.92;1.75;;;;;;;;;;4995605;28;20208;-30
2022/06/28 09:56:53;;;;;;;1.63;1.33;;;;;;;;;;4985658;28;20251;-29
2022/06/28 09:59:22;;;;;;;1.52;1.42;;;;;;;;;;4996846;28;20211;-29
2022/06/28 10:01:49;;;;;;;1.33;1.33;;;;;;;;;;4995866;28;20200;-30
2022/06/28 10:04:18;;;;;;;1.40;1.30;;;;;;;;;;4983740;28;20210;-30
2022/06/28 10:06:45;;;;;;;1.50;1.40;;;;;;;;;;4993150;28;20251;-31
2022/06/28 10:09:12;;;;;;;1.60;1.50;;;;;;;;;;4993985;28;20253;-26
2022/06/28 10:17:23;;;;;;;7.63;1.40;;;;;;;;;;4987508;28;20246;-29
2022/06/28 10:19:50;;;;;;;1.65;1.30;;;;;;;;;;4991046;28;20208;-33
2022/06/28 10:22:18;;;;;;;1.20;1.20;;;;;;;;;;4993029;28;20211;-30
2022/06/28 10:24:52;;;;;;;1.40;1.30;;;;;;;;;;4993545;28;20215;-32
2022/06/28 10:27:20;;;;;;;1.63;1.52;;;;;;;;;;4988347;28;20263;-30
2022/06/28 10:30:08;;;;;;;1.33;1.23;;;;;;;;;;4992669;28;20208;-28
2022/06/28 10:32:43;;;;;;;2.05;1.13;;;;;;;;;;4991393;28;20266;-31
2022/06/28 10:35:11;;;;;;;1.00;1.00;;;;;;;;;;4988152;28;20593;-27
2022/06/28 10:37:58;;;;;;;2.80;1.13;;;;;;;;;;4992382;28;20224;-30
2022/06/28 10:40:31;;;;;;;1.17;1.10;;;;;;;;;;4992768;28;20215;-31
2022/06/28 10:42:58;;;;;;;1.20;1.20;;;;;;;;;;4982348;28;20199;-31
2022/06/28 10:45:26;;;;;;;1.23;1.17;;;;;;;;;;4991666;28;20200;-32
2022/06/28 10:48:13;;;;;;;1.23;1.23;;;;;;;;;;4986035;28;20227;-29
2022/06/28 10:50:56;;;;;;;1.58;1.48;;;;;;;;;;4990250;28;20232;-31
2022/06/28 10:53:23;;;;;;;5.05;1.38;;;;;;;;;;4993979;28;20200;-31
2022/06/28 10:56:05;;;;;;;1.48;1.38;;;;;;;;;;4988354;28;20681;-28
2022/06/28 10:58:32;;;;;;;1.50;1.40;;;;;;;;;;4990251;28;20208;-30
2022/06/28 11:01:00;;;;;;;1.58;1.30;;;;;;;;;;4992291;28;20207;-30
2022/06/28 11:03:28;;;;;;;1.15;1.15;;;;;;;;;;4981208;28;20201;-29
2022/06/28 11:05:57;;;;;;;1.17;1.17;;;;;;;;;;4991028;28;20200;-32
2022/06/28 11:08:39;;;;;;;1.13;1.02;;;;;;;;;;4992441;28;20200;-32
2022/06/28 11:11:07;;;;;;;1.05;1.00;;;;;;;;;;4984131;28;20283;-33
2022/06/28 11:13:34;;;;;;;1.70;1.60;;;;;;;;;;4983202;28;20659;-30
2022/06/28 11:16:01;;;;;;;2.13;1.50;;;;;;;;;;4992233;28;20230;-30
2022/06/28 11:18:31;;;;;;;2.42;1.13;;;;;;;;;;4984986;28;20243;-29
2022/06/28 11:20:58;;;;;;;1.40;1.30;;;;;;;;;;4984060;28;20218;-29
2022/06/28 11:23:26;;;;;;;1.10;1.10;;;;;;;;;;4992267;28;20211;-29
2022/06/28 11:28:54;;;;;;;2.55;1.40;;;;;;;;;;4985900;28;20230;-30
2022/06/28 11:31:22;;;;;;;4.35;1.42;;;;;;;;;;4987587;28;20298;-30
2022/06/28 11:33:50;;;;;;;1.00;1.00;;;;;;;;;;4980127;28;20228;-30
2022/06/28 11:36:22;;;;;;;2.15;1.20;;;;;;;;;;4990889;28;20310;-29
2022/06/28 11:38:49;;;;;;;1.92;1.23;;;;;;;;;;4992175;28;20245;-32
2022/06/28 11:41:28;;;;;;;1.55;1.10;;;;;;;;;;4986908;28;20204;-29
2022/06/28 11:43:56;;;;;;;1.20;1.00;;;;;;;;;;4987565;28;20199;-31
2022/06/28 11:46:24;;;;;;;1.13;1.02;;;;;;;;;;4991939;28;20250;-29
2022/06/28 11:48:52;;;;;;;1.13;0.93;;;;;;;;;;4985124;28;20417;-32
2022/06/28 11:51:26;;;;;;;1.20;1.10;;;;;;;;;;4990958;28;20211;-29
2022/06/28 11:53:53;;;;;;;0.85;0.85;;;;;;;;;;4992098;28;20231;-28
2022/06/28 11:56:20;;;;;;;1.20;1.10;;;;;;;;;;4985144;28;20236;-30
2022/06/28 11:58:47;;;;;;;1.30;1.20;;;;;;;;;;4982182;28;20686;-31
2022/06/28 12:01:15;;;;;;;1.50;1.42;;;;;;;;;;4991705;28;20205;-30
2022/06/28 12:04:02;;;;;;;1.10;1.10;;;;;;;;;;4980388;28;20602;-29
2022/06/28 12:06:30;;;;;;;1.08;0.90;;;;;;;;;;4991131;28;20262;-30
2022/06/28 12:08:58;;;;;;;1.42;1.25;;;;;;;;;;4971840;28;20235;-30
2022/06/28 12:11:33;;;;;;;1.75;1.10;;;;;;;;;;4972388;28;20239;-31
2022/06/28 12:14:01;;;;;;;2.97;1.30;;;;;;;;;;4975137;28;20302;-28
2022/06/28 12:16:29;;;;;;;1.02;0.88;;;;;;;;;;4987825;28;20933;-29
2022/06/28 12:18:57;;;;;;;1.83;1.10;;;;;;;;;;4987279;28;20208;-33
2022/06/28 12:21:26;;;;;;;1.88;1.10;;;;;;;;;;4991058;28;20290;-31
2022/06/28 12:23:53;;;;;;;4.03;1.27;;;;;;;;;;4991566;28;20211;-29
2022/06/28 12:26:21;;;;;;;1.85;1.25;;;;;;;;;;4992604;28;20227;-30
2022/06/28 12:28:49;;;;;;;1.25;1.13;;;;;;;;;;4987137;28;20211;-30
2022/06/28 12:31:16;;;;;;;2.13;0.98;;;;;;;;;;4987451;28;20210;-30
2022/06/28 12:33:43;;;;;;;3.05;1.38;;;;;;;;;;4983620;28;20220;-33
2022/06/28 12:36:10;;;;;;;0.90;0.90;;;;;;;;;;4990444;28;20229;-30
2022/06/28 12:38:39;;;;;;;1.08;0.95;;;;;;;;;;4991045;28;20678;-30
2022/06/28 12:41:06;;;;;;;1.48;1.38;;;;;;;;;;4986086;28;20286;-29
2022/06/28 12:43:33;;;;;;;1.00;1.00;;;;;;;;;;4983530;28;20220;-31
2022/06/28 12:46:00;;;;;;;1.92;1.25;;;;;;;;;;4990512;28;20603;-29
2022/06/28 12:48:27;;;;;;;1.85;1.38;;;;;;;;;;4983316;28;20204;-29
2022/06/28 12:50:54;;;;;;;1.63;1.02;;;;;;;;;;4989783;28;20214;-27
2022/06/28 12:53:22;;;;;;;3.63;1.30;;;;;;;;;;4990521;28;20545;-29
2022/06/28 12:55:50;;;;;;;1.95;1.10;;;;;;;;;;4984855;28;20228;-30
2022/06/28 12:58:17;;;;;;;1.67;1.10;;;;;;;;;;4985191;28;20207;-31
2022/06/28 13:00:45;;;;;;;1.13;1.13;;;;;;;;;;4990603;28;20200;-32
2022/06/28 13:03:12;;;;;;;0.90;0.90;;;;;;;;;;4987570;28;20211;-31
2022/06/28 13:05:39;;;;;;;1.05;1.02;;;;;;;;;;4989608;28;20204;-29
2022/06/28 13:08:07;;;;;;;1.60;1.15;;;;;;;;;;4990519;28;20212;-28
2022/06/28 13:10:35;;;;;;;1.15;1.13;;;;;;;;;;4988916;28;20215;-30
2022/06/28 13:13:03;;;;;;;1.73;0.85;;;;;;;;;;4981674;28;20215;-31
2022/06/28 13:15:31;;;;;;;0.80;0.80;;;;;;;;;;4986398;28;20208;-29
2022/06/28 13:17:58;;;;;;;0.75;0.75;;;;;;;;;;4970617;28;20220;-29
2022/06/28 13:20:25;;;;;;;1.00;0.90;;;;;;;;;;4988220;28;20215;-31
2022/06/28 13:22:52;;;;;;;2.15;1.00;;;;;;;;;;4990125;28;20201;-29
2022/06/28 13:25:19;;;;;;;1.00;1.00;;;;;;;;;;4990166;28;20212;-29
2022/06/28 13:27:47;;;;;;;0.93;0.90;;;;;;;;;;4987519;28;20587;-29
2022/06/28 13:30:15;;;;;;;0.95;0.90;;;;;;;;;;4993986;28;20210;-28
2022/06/28 13:32:42;;;;;;;1.52;1.10;;;;;;;;;;4989146;28;20240;-30
2022/06/28 13:35:10;;;;;;;0.80;0.80;;;;;;;;;;4991443;28;20299;-31
2022/06/28 13:37:37;;;;;;;1.00;1.00;;;;;;;;;;4993644;28;20701;-29
2022/06/28 13:40:04;;;;;;;1.00;0.80;;;;;;;;;;4994102;28;20215;-30
2022/06/28 13:42:31;;;;;;;0.80;0.80;;;;;;;;;;4985289;28;20196;-30
2022/06/28 13:44:58;;;;;;;3.90;0.98;;;;;;;;;;4986764;28;20207;-30
2022/06/28 13:47:27;;;;;;;0.88;0.88;;;;;;;;;;4992676;28;20296;-29
2022/06/28 13:49:54;;;;;;;1.08;0.90;;;;;;;;;;4984730;28;20207;-30
2022/06/28 13:52:21;;;;;;;2.30;0.90;;;;;;;;;;4993393;28;20208;-28
2022/06/28 13:54:48;;;;;;;1.25;0.90;;;;;;;;;;4993863;28;20219;-29
2022/06/28 13:57:16;;;;;;;1.05;1.00;;;;;;;;;;4987882;28;20239;-30
2022/06/28 14:02:12;;;;;;;2.17;1.00;;;;;;;;;;5032666;28;20222;-37
2022/06/28 14:04:41;;;;;;;1.10;1.00;;;;;;;;;;5029980;28;20198;-35
2022/06/28 14:07:08;;;;;;;1.50;0.95;;;;;;;;;;5039335;28;20214;-32
2022/06/28 14:09:35;;;;;;;0.80;0.80;;;;;;;;;;5054378;28;20218;-35
2022/06/28 14:12:02;;;;;;;1.60;0.90;;;;;;;;;;5054748;28;20205;-39
2022/06/28 14:14:29;;;;;;;2.10;1.17;;;;;;;;;;5035970;28;20202;-37
2022/06/28 14:16:56;;;;;;;0.90;0.90;;;;;;;;;;5034269;28;20222;-30
2022/06/28 14:19:23;;;;;;;2.22;0.95;;;;;;;;;;5025517;28;20260;-37
2022/06/28 14:21:52;;;;;;;0.90;0.90;;;;;;;;;;5033719;28;20202;-36
2022/06/28 14:24:19;;;;;;;1.00;0.90;;;;;;;;;;5034513;28;20226;-32
2022/06/28 14:26:46;;;;;;;0.85;0.85;;;;;;;;;;5029940;28;20248;-35
2022/06/28 14:29:14;;;;;;;1.33;1.00;;;;;;;;;;5030143;28;20202;-37
2022/06/28 14:31:41;;;;;;;1.08;1.08;;;;;;;;;;5034232;28;20202;-35
2022/06/28 14:34:09;;;;;;;0.95;0.95;;;;;;;;;;5035813;28;20194;-32
2022/06/28 14:36:36;;;;;;;1.13;1.13;;;;;;;;;;5044021;28;20235;-31
2022/06/28 14:39:04;;;;;;;3.10;1.55;;;;;;;;;;5033550;28;20210;-36
2022/06/28 14:41:32;;;;;;;2.42;0.90;;;;;;;;;;5032806;28;20210;-32
2022/06/28 14:43:59;;;;;;;1.15;1.15;;;;;;;;;;5037143;28;20234;-36
2022/06/28 14:46:26;;;;;;;0.90;0.90;;;;;;;;;;5040039;28;20223;-33
2022/06/28 14:48:53;;;;;;;1.13;1.13;;;;;;;;;;5028858;28;20287;-36
2022/06/28 14:51:20;;;;;;;1.90;1.23;;;;;;;;;;5038656;28;20213;-34
2022/06/28 14:54:12;;;;;;;1.10;1.10;;;;;;;;;;5034991;28;20297;-33
2022/06/28 14:56:41;;;;;;;1.38;1.10;;;;;;;;;;5031104;28;20227;-37
2022/06/28 14:59:08;;;;;;;1.13;1.13;;;;;;;;;;5030147;28;20210;-34
2022/06/28 15:01:35;;;;;;;1.10;1.10;;;;;;;;;;5033415;28;20217;-36
2022/06/28 15:04:02;;;;;;;1.63;1.27;;;;;;;;;;5024698;28;20202;-34
2022/06/28 15:06:29;;;;;;;3.88;1.40;;;;;;;;;;5033184;28;20222;-32
2022/06/28 15:08:57;;;;;;;2.53;1.30;;;;;;;;;;5033490;28;20270;-37
2022/06/28 15:11:24;;;;;;;4.25;2.47;;;;;;;;;;5033650;28;20264;-32
2022/06/28 15:13:53;;;;;;;2.88;2.08;;;;;;;;;;5029923;28;20326;-38